createdAt,value
2022-09-24T00:03:05.924Z,21.55
2022-09-24T00:08:08.685Z,21.57
2022-09-24T00:13:13.884Z,21.53
2022-09-24T00:18:17.346Z,21.49
2022-09-24T00:23:19.950Z,21.42
2022-09-24T00:28:23.984Z,21.43
2022-09-24T00:33:28.150Z,21.41
2022-09-24T00:38:30.846Z,21.37
2022-09-24T00:43:35.650Z,21.37
2022-09-24T00:48:40.313Z,21.34
2022-09-24T00:53:42.924Z,21.32
2022-09-24T00:58:49.952Z,21.32
2022-09-24T01:03:54.095Z,21.27
2022-09-24T01:08:56.918Z,21.17
2022-09-24T01:14:26.740Z,21.16
2022-09-24T01:19:42.638Z,21.11
2022-09-24T01:25:03.096Z,21.09
2022-09-24T01:30:07.890Z,21.08
2022-09-24T01:35:13.362Z,21.11
2022-09-24T01:40:16.193Z,21.11
2022-09-24T01:45:20.482Z,21.09
2022-09-24T01:50:23.083Z,21.03
2022-09-24T01:55:27.085Z,21.09
2022-09-24T02:00:31.115Z,21.03
2022-09-24T02:05:34.800Z,21.01
2022-09-24T02:10:39.188Z,20.96
2022-09-24T02:15:43.872Z,20.95
2022-09-24T02:20:46.535Z,20.93
2022-09-24T02:25:50.645Z,20.93
2022-09-24T02:30:56.033Z,20.92
2022-09-24T02:35:58.744Z,20.90
2022-09-24T02:41:01.397Z,20.89
2022-09-24T02:46:05.602Z,20.87
2022-09-24T02:51:08.281Z,20.86
2022-09-24T02:56:11.166Z,20.85
2022-09-24T03:01:15.201Z,20.86
2022-09-24T03:06:17.859Z,20.79
2022-09-24T03:11:20.565Z,20.78
2022-09-24T03:16:24.570Z,20.76
2022-09-24T03:21:27.174Z,20.74
2022-09-24T03:26:29.931Z,20.74
2022-09-24T03:31:33.967Z,20.71
2022-09-24T03:36:36.719Z,20.74
2022-09-24T03:41:39.335Z,20.69
2022-09-24T03:46:43.852Z,20.71
2022-09-24T03:51:46.458Z,20.69
2022-09-24T03:56:49.197Z,20.70
2022-09-24T04:01:53.176Z,20.69
2022-09-24T04:06:55.833Z,20.68
2022-09-24T04:11:59.048Z,20.63
2022-09-24T04:17:03.677Z,20.64
2022-09-24T04:22:06.635Z,20.62
2022-09-24T04:27:09.254Z,20.60
2022-09-24T04:32:13.385Z,20.61
2022-09-24T04:37:16.013Z,20.56
2022-09-24T04:42:18.698Z,20.58
2022-09-24T04:47:25.860Z,20.59
2022-09-24T04:52:29.835Z,20.58
2022-09-24T04:57:35.960Z,20.56
2022-09-24T05:02:40.061Z,20.56
2022-09-24T05:07:44.459Z,20.53
2022-09-24T05:12:48.127Z,20.48
2022-09-24T05:17:52.117Z,20.48
2022-09-24T05:22:55.390Z,20.46
2022-09-24T05:27:57.983Z,20.47
2022-09-24T05:33:01.936Z,20.47
2022-09-24T05:38:04.559Z,20.42
2022-09-24T05:43:07.179Z,20.44
2022-09-24T05:48:11.171Z,20.41
2022-09-24T05:53:13.871Z,20.40
2022-09-24T05:58:16.511Z,20.40
2022-09-24T06:03:20.971Z,20.41
2022-09-24T06:08:23.813Z,20.44
2022-09-24T06:13:26.472Z,20.44
2022-09-24T06:18:31.329Z,20.44
2022-09-24T06:23:33.918Z,20.42
2022-09-24T06:28:36.593Z,20.49
2022-09-24T06:33:40.951Z,20.47
2022-09-24T06:38:45.363Z,20.46
2022-09-24T06:43:47.965Z,20.48
2022-09-24T06:48:51.933Z,20.51
2022-09-24T06:53:54.532Z,20.50
2022-09-24T06:58:57.184Z,20.50
2022-09-24T07:04:01.471Z,20.55
2022-09-24T07:09:04.667Z,20.59
2022-09-24T07:14:07.506Z,20.57
2022-09-24T07:19:11.529Z,20.60
2022-09-24T07:24:14.464Z,20.62
2022-09-24T07:29:17.164Z,20.58
2022-09-24T07:34:21.342Z,20.52
2022-09-24T07:39:24.133Z,20.49
2022-09-24T07:44:26.751Z,20.53
2022-09-24T07:49:32.183Z,20.18
2022-09-24T07:54:35.136Z,19.58
2022-09-24T07:59:37.764Z,19.39
2022-09-24T08:04:42.019Z,19.67
2022-09-24T08:09:44.654Z,19.73
2022-09-24T08:14:47.266Z,19.92
2022-09-24T08:19:52.139Z,20.10
2022-09-24T08:24:54.859Z,20.13
2022-09-24T08:29:57.777Z,20.15
2022-09-24T08:35:01.897Z,20.22
2022-09-24T08:40:04.808Z,20.23
2022-09-24T08:45:25.708Z,20.27
2022-09-24T08:50:30.715Z,20.32
2022-09-24T08:55:36.266Z,20.36
2022-09-24T09:00:41.464Z,20.42
2022-09-24T09:05:52.941Z,20.49
2022-09-24T09:10:58.102Z,20.55
2022-09-24T09:16:03.303Z,20.61
2022-09-24T09:21:14.879Z,20.69
2022-09-24T09:26:20.089Z,20.71
2022-09-24T09:31:29.084Z,20.73
2022-09-24T09:36:40.761Z,20.78
2022-09-24T09:41:46.950Z,20.77
2022-09-24T09:46:52.826Z,20.77
2022-09-24T09:51:57.418Z,20.77
2022-09-24T09:57:00.157Z,20.77
2022-09-24T10:02:02.930Z,20.78
2022-09-24T10:07:08.434Z,20.81
2022-09-24T10:12:16.478Z,20.80
2022-09-24T10:17:19.369Z,20.78
2022-09-24T10:22:23.785Z,20.85
2022-09-24T10:27:30.844Z,20.88
2022-09-24T10:32:33.484Z,20.87
2022-09-24T10:37:37.428Z,20.94
2022-09-24T10:42:40.117Z,21.01
2022-09-24T10:47:44.051Z,21.04
2022-09-24T10:52:52.253Z,21.01
2022-09-24T10:57:59.977Z,21.03
2022-09-24T11:03:36.294Z,21.11
2022-09-24T11:08:52.767Z,21.23
2022-09-24T11:13:59.410Z,21.27
2022-09-24T11:19:02.820Z,21.25
2022-09-24T11:24:19.273Z,21.36
2022-09-24T11:29:54.360Z,21.54
2022-09-24T11:35:06.327Z,21.72
2022-09-24T11:40:21.809Z,21.83
2022-09-24T11:45:35.087Z,21.87
2022-09-24T11:50:47.720Z,21.86
2022-09-24T11:55:53.627Z,21.85
2022-09-24T12:00:58.389Z,21.93
2022-09-24T12:06:03.233Z,22.03
2022-09-24T12:11:09.525Z,22.12
2022-09-24T12:16:13.645Z,22.17
2022-09-24T12:21:18.332Z,22.27
2022-09-24T12:26:22.366Z,22.31
2022-09-24T12:31:47.925Z,22.37
2022-09-24T12:36:59.090Z,22.38
2022-09-24T12:42:03.896Z,22.39
2022-09-24T12:47:07.085Z,22.49
2022-09-24T12:52:17.449Z,22.50
2022-09-24T12:57:25.696Z,22.52
2022-09-24T13:02:29.736Z,22.55
2022-09-24T13:07:34.235Z,22.56
2022-09-24T13:12:38.409Z,22.74
2022-09-24T13:17:40.979Z,22.81
2022-09-24T13:22:43.718Z,23.12
2022-09-24T13:27:56.885Z,23.28
2022-09-24T13:33:03.818Z,23.36
2022-09-24T13:38:08.131Z,23.48
2022-09-24T13:43:14.597Z,23.57
2022-09-24T13:48:19.202Z,23.65
2022-09-24T13:53:24.895Z,23.76
2022-09-24T13:58:29.516Z,23.85
2022-09-24T14:03:33.273Z,23.62
2022-09-24T14:08:35.925Z,23.63
2022-09-24T14:13:44.990Z,23.57
2022-09-24T14:18:48.006Z,23.59
2022-09-24T14:23:52.591Z,23.60
2022-09-24T14:28:56.562Z,23.56
2022-09-24T14:33:59.477Z,23.53
2022-09-24T14:39:03.081Z,23.58
2022-09-24T14:44:07.831Z,23.55
2022-09-24T14:49:19.489Z,23.65
2022-09-24T14:54:28.436Z,23.63
2022-09-24T14:59:32.749Z,23.63
2022-09-24T15:04:35.443Z,23.57
2022-09-24T15:09:38.097Z,23.60
2022-09-24T15:14:42.753Z,23.65
2022-09-24T15:19:45.965Z,23.67
2022-09-24T15:24:48.738Z,23.64
2022-09-24T15:29:54.351Z,23.63
2022-09-24T15:34:56.967Z,23.65
2022-09-24T15:40:01.199Z,23.77
2022-09-24T15:45:10.286Z,23.73
2022-09-24T15:50:13.153Z,23.77
2022-09-24T15:55:17.262Z,23.72
2022-09-24T16:00:22.726Z,23.64
2022-09-24T16:05:25.823Z,23.58
2022-09-24T16:10:28.472Z,23.58
2022-09-24T16:15:32.477Z,23.59
2022-09-24T16:20:35.285Z,23.61
2022-09-24T16:25:38.153Z,23.57
2022-09-24T16:30:43.108Z,23.53
2022-09-24T16:35:46.076Z,23.18
2022-09-24T16:40:49.069Z,22.76
2022-09-24T16:45:53.066Z,22.63
2022-09-24T16:50:55.766Z,22.34
2022-09-24T16:56:04.437Z,22.72
2022-09-24T17:01:09.341Z,22.89
2022-09-24T17:06:18.330Z,23.09
2022-09-24T17:11:21.326Z,23.06
2022-09-24T17:16:25.891Z,23.02
2022-09-24T17:21:28.551Z,23.05
2022-09-24T17:26:31.377Z,23.04
2022-09-24T17:31:35.405Z,23.13
2022-09-24T17:36:38.107Z,23.12
2022-09-24T17:41:40.801Z,23.13
2022-09-24T17:46:44.846Z,23.13
2022-09-24T17:51:49.286Z,23.06
2022-09-24T17:56:52.011Z,23.07
2022-09-24T18:01:56.105Z,23.20
2022-09-24T18:06:58.798Z,23.22
2022-09-24T18:12:02.028Z,23.21
2022-09-24T18:17:06.431Z,23.24
2022-09-24T18:22:09.159Z,23.27
2022-09-24T18:27:15.235Z,23.26
2022-09-24T18:32:19.723Z,23.25
2022-09-24T18:37:22.361Z,23.26
2022-09-24T18:42:25.676Z,23.27
2022-09-24T18:47:29.858Z,23.26
2022-09-24T18:52:32.612Z,23.27
2022-09-24T18:57:35.437Z,23.26
2022-09-24T19:02:39.584Z,23.28
2022-09-24T19:07:42.454Z,23.26
2022-09-24T19:12:45.055Z,23.29
2022-09-24T19:17:49.602Z,23.26
2022-09-24T19:23:00.000Z,23.30
2022-09-24T19:28:04.116Z,23.32
2022-09-24T19:33:08.553Z,23.36
2022-09-24T19:38:11.276Z,23.38
2022-09-24T19:43:14.098Z,23.36
2022-09-24T19:48:18.035Z,23.33
2022-09-24T19:53:20.795Z,23.34
2022-09-24T19:58:23.393Z,23.33
2022-09-24T20:03:27.382Z,23.31
2022-09-24T20:08:30.343Z,23.28
2022-09-24T20:13:33.172Z,23.28
2022-09-24T20:18:37.146Z,23.29
2022-09-24T20:23:40.004Z,23.28
2022-09-24T20:28:42.856Z,23.31
2022-09-24T20:33:46.885Z,23.28
2022-09-24T20:38:49.600Z,23.23
2022-09-24T20:43:52.323Z,23.24
2022-09-24T20:48:58.435Z,23.27
2022-09-24T20:54:01.153Z,23.26
2022-09-24T20:59:04.212Z,23.26
2022-09-24T21:04:08.166Z,23.27
2022-09-24T21:09:10.789Z,23.29
2022-09-24T21:14:14.603Z,23.27
2022-09-24T21:19:18.838Z,23.27
2022-09-24T21:24:24.192Z,23.23
2022-09-24T21:29:29.056Z,23.23
2022-09-24T21:34:33.524Z,23.20
2022-09-24T21:39:36.529Z,23.17
2022-09-24T21:44:39.157Z,23.15
2022-09-24T21:49:43.130Z,23.13
2022-09-24T21:54:45.823Z,23.12
2022-09-24T22:00:00.616Z,23.09
2022-09-24T22:05:05.134Z,23.11
2022-09-24T22:10:08.649Z,23.07
2022-09-24T22:15:11.419Z,23.04
2022-09-24T22:20:15.467Z,23.05
2022-09-24T22:25:18.259Z,23.06
2022-09-24T22:30:21.025Z,22.97
2022-09-24T22:35:43.583Z,23.02
2022-09-24T22:40:46.365Z,23.06
2022-09-24T22:45:49.004Z,23.08
2022-09-24T22:50:52.976Z,23.04
2022-09-24T22:56:03.447Z,23.09
2022-09-24T23:01:07.533Z,23.03
2022-09-24T23:06:12.555Z,23.05
2022-09-24T23:11:15.885Z,23.07
2022-09-24T23:16:19.830Z,23.00
2022-09-24T23:21:24.474Z,23.03
2022-09-24T23:26:27.385Z,23.00
2022-09-24T23:31:30.985Z,22.95
2022-09-24T23:36:35.531Z,23.01
2022-09-24T23:41:38.291Z,22.97
2022-09-24T23:46:41.039Z,22.95
2022-09-24T23:51:45.029Z,22.94
2022-09-24T23:56:47.718Z,22.94
